createdAt,value
2019-03-21T00:00:56.342Z,3.40
2019-03-21T00:03:26.743Z,3.70
2019-03-21T00:06:09.659Z,4.03
2019-03-21T00:08:39.071Z,3.70
2019-03-21T00:15:03.089Z,4.20
2019-03-21T00:20:29.137Z,3.65
2019-03-21T00:25:52.694Z,3.50
2019-03-21T00:28:22.103Z,3.23
2019-03-21T00:30:58.938Z,3.63
2019-03-21T00:33:31.710Z,3.50
2019-03-21T00:36:04.819Z,3.73
2019-03-21T00:38:38.875Z,3.50
2019-03-21T00:41:09.583Z,3.10
2019-03-21T00:44:03.718Z,3.83
2019-03-21T00:46:36.469Z,3.47
2019-03-21T00:49:09.329Z,3.40
2019-03-21T00:52:04.543Z,3.20
2019-03-21T00:54:35.482Z,3.15
2019-03-21T00:57:07.294Z,3.12
2019-03-21T00:59:40.201Z,3.35
2019-03-21T01:02:10.785Z,3.10
2019-03-21T01:04:42.133Z,3.50
2019-03-21T01:07:21.665Z,4.80
2019-03-21T01:09:58.479Z,3.52
2019-03-21T01:13:07.717Z,3.72
2019-03-21T01:15:41.401Z,3.25
2019-03-21T01:18:13.527Z,3.30
2019-03-21T01:27:56.875Z,3.60
2019-03-21T01:30:27.406Z,3.55
2019-03-21T01:32:56.882Z,3.52
2019-03-21T01:36:19.678Z,3.62
2019-03-21T01:38:50.030Z,3.60
2019-03-21T01:41:23.392Z,3.10
2019-03-21T01:44:00.722Z,3.12
2019-03-21T01:46:30.134Z,4.17
2019-03-21T01:48:59.221Z,3.27
2019-03-21T01:51:35.229Z,3.40
2019-03-21T01:54:04.443Z,3.42
2019-03-21T01:57:00.660Z,3.95
2019-03-21T01:59:29.708Z,3.25
2019-03-21T02:01:58.975Z,3.87
2019-03-21T02:05:19.396Z,3.58
2019-03-21T02:07:48.720Z,3.45
2019-03-21T02:10:18.354Z,3.87
2019-03-21T02:12:53.717Z,3.52
2019-03-21T02:15:24.929Z,3.87
2019-03-21T02:18:17.527Z,3.60
2019-03-21T02:20:49.685Z,3.37
2019-03-21T02:23:18.943Z,3.80
2019-03-21T02:26:27.143Z,3.37
2019-03-21T02:28:56.202Z,3.70
2019-03-21T02:31:25.288Z,3.12
2019-03-21T02:34:00.733Z,3.83
2019-03-21T02:36:29.951Z,3.25
2019-03-21T02:39:35.115Z,3.35
2019-03-21T02:42:04.089Z,3.20
2019-03-21T02:44:35.565Z,3.55
2019-03-21T02:47:40.723Z,3.37
2019-03-21T02:50:12.859Z,3.52
2019-03-21T02:52:41.942Z,4.08
2019-03-21T02:55:18.452Z,3.58
2019-03-21T02:57:47.462Z,3.60
2019-03-21T03:01:10.588Z,3.67
2019-03-21T03:03:39.677Z,3.87
2019-03-21T03:06:08.679Z,3.52
2019-03-21T03:09:13.578Z,4.17
2019-03-21T03:11:42.975Z,3.83
2019-03-21T03:14:12.037Z,4.12
2019-03-21T03:16:48.444Z,4.45
2019-03-21T03:19:17.550Z,4.05
2019-03-21T03:22:34.585Z,3.98
2019-03-21T03:25:03.570Z,4.15
2019-03-21T03:27:32.691Z,4.50
2019-03-21T03:30:02.056Z,4.35
2019-03-21T03:32:31.139Z,3.95
2019-03-21T03:35:00.905Z,4.10
2019-03-21T03:37:37.511Z,4.10
2019-03-21T03:40:09.471Z,4.40
2019-03-21T03:43:04.442Z,4.35
2019-03-21T03:45:41.130Z,4.40
2019-03-21T03:48:10.566Z,4.53
2019-03-21T03:51:22.078Z,4.87
2019-03-21T03:53:51.249Z,4.83
2019-03-21T03:56:20.493Z,4.70
2019-03-21T03:59:02.320Z,4.53
2019-03-21T04:01:31.462Z,4.40
2019-03-21T04:04:48.587Z,5.15
2019-03-21T04:07:17.674Z,4.33
2019-03-21T04:09:46.667Z,4.45
2019-03-21T04:12:45.498Z,4.33
2019-03-21T04:15:15.679Z,4.83
2019-03-21T04:17:47.192Z,4.50
2019-03-21T04:20:29.037Z,4.90
2019-03-21T04:22:58.150Z,5.12
2019-03-21T04:25:52.743Z,4.75
2019-03-21T04:28:21.693Z,4.87
2019-03-21T04:30:50.789Z,6.03
2019-03-21T04:34:03.858Z,5.83
2019-03-21T04:36:32.965Z,6.60
2019-03-21T04:39:02.016Z,5.90
2019-03-21T04:41:38.014Z,6.30
2019-03-21T04:44:07.232Z,5.85
2019-03-21T04:47:03.440Z,5.70
2019-03-21T04:49:32.466Z,5.75
2019-03-21T04:52:01.818Z,5.58
2019-03-21T04:55:19.079Z,6.25
2019-03-21T04:57:49.098Z,5.80
2019-03-21T05:00:58.816Z,6.70
2019-03-21T05:03:32.243Z,5.87
2019-03-21T05:06:01.550Z,6.37
2019-03-21T05:08:30.934Z,6.28
2019-03-21T05:11:01.440Z,5.28
2019-03-21T05:13:32.220Z,6.10
2019-03-21T05:16:14.660Z,5.80
2019-03-21T05:18:43.471Z,6.28
2019-03-21T05:21:58.851Z,6.37
2019-03-21T05:24:29.359Z,6.75
2019-03-21T05:27:02.434Z,7.17
2019-03-21T05:30:03.397Z,6.75
2019-03-21T05:32:33.388Z,5.97
2019-03-21T05:35:03.632Z,6.85
2019-03-21T05:37:40.701Z,6.25
2019-03-21T05:40:24.290Z,6.10
2019-03-21T05:42:57.011Z,6.10
2019-03-21T05:45:34.570Z,7.12
2019-03-21T05:48:14.155Z,6.87
2019-03-21T05:51:36.051Z,6.90
2019-03-21T05:54:06.384Z,7.45
2019-03-21T05:57:11.929Z,6.78
2019-03-21T05:59:54.272Z,6.90
2019-03-21T06:02:22.190Z,5.80
2019-03-21T06:12:03.450Z,6.85
2019-03-21T06:14:36.893Z,6.65
2019-03-21T06:17:09.925Z,7.45
2019-03-21T06:20:04.232Z,6.28
2019-03-21T06:23:24.533Z,7.22
2019-03-21T06:26:15.672Z,6.60
2019-03-21T06:29:21.007Z,6.42
2019-03-21T06:31:50.435Z,6.75
2019-03-21T06:34:56.492Z,7.08
2019-03-21T06:37:28.713Z,8.58
2019-03-21T06:40:39.373Z,7.60
2019-03-21T06:43:08.639Z,6.90
2019-03-21T06:46:32.155Z,6.72
2019-03-21T06:49:01.470Z,6.65
2019-03-21T06:51:31.055Z,6.90
2019-03-21T06:54:02.924Z,6.70
2019-03-21T06:56:33.440Z,7.47
2019-03-21T07:13:12.198Z,7.72
2019-03-21T07:15:47.794Z,7.45
2019-03-21T07:18:17.199Z,6.70
2019-03-21T07:21:30.121Z,7.13
2019-03-21T07:24:00.313Z,7.13
2019-03-21T07:34:02.082Z,6.47
2019-03-21T07:36:32.012Z,6.23
2019-03-21T07:39:07.452Z,6.77
2019-03-21T07:42:07.114Z,7.23
2019-03-21T07:44:47.021Z,7.10
2019-03-21T07:54:50.158Z,8.00
2019-03-21T07:57:23.191Z,7.33
2019-03-21T07:59:54.129Z,6.90
2019-03-21T08:16:29.633Z,6.37
2019-03-21T08:19:05.309Z,5.83
2019-03-21T08:29:11.932Z,5.63
2019-03-21T08:31:46.221Z,5.73
2019-03-21T08:35:18.155Z,5.37
2019-03-21T08:52:10.321Z,3.83
2019-03-21T08:54:41.490Z,4.37
2019-03-21T08:57:45.654Z,3.83
2019-03-21T09:00:18.378Z,3.80
2019-03-21T09:03:02.079Z,3.80
2019-03-21T09:05:37.880Z,3.83
2019-03-21T09:08:55.011Z,3.20
2019-03-21T09:11:44.197Z,4.50
2019-03-21T09:16:52.642Z,3.80
2019-03-21T09:19:59.611Z,3.17
2019-03-21T09:22:35.360Z,3.97
2019-03-21T09:26:10.102Z,3.20
2019-03-21T09:28:45.243Z,2.63
2019-03-21T09:32:00.285Z,3.10
2019-03-21T09:34:45.078Z,3.67
2019-03-21T09:38:01.334Z,2.97
2019-03-21T09:50:29.624Z,2.57
2019-03-21T09:53:18.880Z,2.77
2019-03-21T09:56:42.955Z,3.17
2019-03-21T09:59:20.065Z,3.17
2019-03-21T10:02:23.321Z,2.87
2019-03-21T10:05:02.653Z,3.10
2019-03-21T10:08:17.174Z,2.83
2019-03-21T10:10:45.450Z,2.60
2019-03-21T10:13:56.642Z,2.80
2019-03-21T10:16:31.270Z,2.70
2019-03-21T10:19:17.078Z,2.50
2019-03-21T10:21:50.381Z,2.70
2019-03-21T10:24:23.831Z,2.40
2019-03-21T10:26:57.060Z,3.37
2019-03-21T10:29:27.824Z,3.33
2019-03-21T10:32:01.403Z,2.60
2019-03-21T10:34:32.904Z,2.50
2019-03-21T10:37:06.672Z,2.90
2019-03-21T10:39:40.339Z,3.07
2019-03-21T10:42:14.100Z,2.63
2019-03-21T10:45:06.679Z,2.47
2019-03-21T10:47:31.444Z,3.67
2019-03-21T10:50:06.310Z,4.13
2019-03-21T10:52:54.383Z,2.87
2019-03-21T10:55:41.710Z,2.50
2019-03-21T10:58:23.170Z,2.80
2019-03-21T11:00:55.133Z,3.20
2019-03-21T11:11:10.474Z,2.63
2019-03-21T11:13:42.302Z,3.00
2019-03-21T11:16:16.392Z,2.83
2019-03-21T11:18:45.208Z,2.27
2019-03-21T11:21:21.437Z,2.23
2019-03-21T11:42:11.110Z,4.47
2019-03-21T11:55:24.377Z,4.50
2019-03-21T11:58:21.117Z,4.80
2019-03-21T12:07:55.902Z,5.60
2019-03-21T12:10:30.841Z,5.73
2019-03-21T12:13:44.137Z,5.63
2019-03-21T12:16:19.678Z,6.00
2019-03-21T12:25:42.103Z,5.53
2019-03-21T12:28:16.893Z,6.30
2019-03-21T12:31:26.632Z,5.53
2019-03-21T12:34:10.131Z,6.07
2019-03-21T12:50:54.609Z,6.70
2019-03-21T12:53:53.768Z,6.63
2019-03-21T12:59:46.148Z,7.27
2019-03-21T13:02:31.524Z,8.00
2019-03-21T13:05:03.096Z,7.17
2019-03-21T13:07:33.490Z,6.70
2019-03-21T13:10:09.800Z,6.73
2019-03-21T13:29:53.224Z,6.23
2019-03-21T13:32:23.856Z,6.95
2019-03-21T13:41:54.796Z,5.10
2019-03-21T13:44:32.144Z,5.70
2019-03-21T13:47:29.403Z,4.97
2019-03-21T13:50:11.061Z,5.23
2019-03-21T14:00:04.898Z,4.87
2019-03-21T14:02:38.339Z,4.90
2019-03-21T14:06:03.416Z,5.00
2019-03-21T14:09:12.858Z,4.63
2019-03-21T14:12:33.399Z,4.93
2019-03-21T14:15:26.731Z,4.87
2019-03-21T14:18:01.591Z,5.28
2019-03-21T14:20:35.639Z,5.10
2019-03-21T14:24:06.349Z,4.60
2019-03-21T14:26:48.851Z,4.43
2019-03-21T14:29:43.895Z,4.17
2019-03-21T14:32:25.113Z,4.57
2019-03-21T14:35:11.949Z,4.43
2019-03-21T14:37:47.334Z,4.20
2019-03-21T14:40:48.844Z,4.17
2019-03-21T14:43:27.056Z,3.80
2019-03-21T14:46:48.481Z,3.53
2019-03-21T14:49:17.703Z,3.87
2019-03-21T14:52:02.182Z,3.40
2019-03-21T14:54:33.119Z,3.40
2019-03-21T15:03:50.694Z,3.67
2019-03-21T15:06:20.874Z,3.93
2019-03-21T15:15:53.766Z,3.20
2019-03-21T15:18:22.826Z,3.30
2019-03-21T15:21:50.518Z,3.30
2019-03-21T15:24:26.864Z,3.27
2019-03-21T15:40:53.469Z,2.97
2019-03-21T15:43:23.874Z,3.33
2019-03-21T15:52:59.730Z,2.63
2019-03-21T15:55:32.019Z,4.23
2019-03-21T15:58:32.674Z,4.20
2019-03-21T16:01:03.871Z,4.50
2019-03-21T16:10:23.800Z,4.90
2019-03-21T16:12:55.430Z,5.10
2019-03-21T16:16:01.853Z,6.43
2019-03-21T16:18:33.674Z,5.20
2019-03-21T16:28:09.952Z,6.33
2019-03-21T16:30:48.393Z,6.90
2019-03-21T16:33:17.805Z,8.03
2019-03-21T16:35:56.406Z,7.87
2019-03-21T16:38:32.172Z,6.80
2019-03-21T16:41:20.253Z,7.50
2019-03-21T16:44:20.820Z,7.33
2019-03-21T16:46:58.776Z,7.00
2019-03-21T16:49:39.709Z,6.73
2019-03-21T16:52:28.817Z,8.75
2019-03-21T16:55:11.214Z,7.23
2019-03-21T16:57:45.079Z,9.15
2019-03-21T17:00:30.098Z,7.67
2019-03-21T17:03:10.998Z,7.30
2019-03-21T17:05:54.619Z,7.00
2019-03-21T17:08:47.551Z,6.67
2019-03-21T17:11:22.686Z,6.77
2019-03-21T17:19:37.277Z,7.17
2019-03-21T17:22:27.112Z,7.73
2019-03-21T17:25:16.838Z,6.93
2019-03-21T17:28:11.096Z,6.50
2019-03-21T17:30:57.343Z,7.40
2019-03-21T17:33:43.237Z,6.97
2019-03-21T17:36:16.884Z,7.50
2019-03-21T17:39:06.791Z,7.20
2019-03-21T17:41:45.328Z,6.70
2019-03-21T17:44:21.405Z,5.90
2019-03-21T17:47:07.004Z,6.27
2019-03-21T17:50:05.101Z,6.43
2019-03-21T17:52:38.107Z,5.83
2019-03-21T17:55:14.565Z,5.90
2019-03-21T17:57:50.690Z,5.97
2019-03-21T18:00:27.362Z,7.03
2019-03-21T18:06:05.665Z,5.40
2019-03-21T18:08:38.846Z,5.70
2019-03-21T18:11:09.772Z,5.80
2019-03-21T18:13:41.011Z,6.33
2019-03-21T18:16:11.506Z,8.93
2019-03-21T18:18:47.653Z,6.97
2019-03-21T18:21:19.388Z,7.63
2019-03-21T18:23:49.910Z,6.10
2019-03-21T18:26:20.015Z,6.33
2019-03-21T18:28:58.611Z,6.60
2019-03-21T18:31:28.087Z,5.20
2019-03-21T18:33:57.500Z,5.57
2019-03-21T18:36:27.230Z,6.50
2019-03-21T18:38:59.889Z,7.97
2019-03-21T18:41:29.627Z,8.70
2019-03-21T18:44:18.805Z,8.27
2019-03-21T18:46:48.003Z,8.93
2019-03-21T18:49:21.588Z,9.77
2019-03-21T18:51:51.101Z,8.83
2019-03-21T18:54:20.905Z,8.83
2019-03-21T18:56:58.576Z,7.87
2019-03-21T18:59:33.557Z,10.40
2019-03-21T19:02:09.727Z,10.53
2019-03-21T19:04:39.061Z,10.60
2019-03-21T19:07:08.871Z,9.40
2019-03-21T19:09:40.646Z,7.50
2019-03-21T19:12:12.322Z,7.47
2019-03-21T19:15:04.651Z,8.23
2019-03-21T19:17:38.571Z,7.37
2019-03-21T19:20:17.099Z,7.20
2019-03-21T19:22:47.794Z,7.77
2019-03-21T19:25:19.626Z,7.70
2019-03-21T19:27:51.759Z,7.60
2019-03-21T19:30:22.379Z,7.83
2019-03-21T19:33:07.232Z,7.53
2019-03-21T19:36:09.249Z,7.13
2019-03-21T19:38:39.010Z,7.17
2019-03-21T19:41:10.220Z,7.07
2019-03-21T19:43:47.433Z,5.73
2019-03-21T19:46:21.443Z,6.43
2019-03-21T19:48:53.372Z,5.80
2019-03-21T19:51:26.437Z,5.83
2019-03-21T19:54:00.593Z,5.57
2019-03-21T19:56:30.027Z,5.63
2019-03-21T19:59:05.441Z,6.10
2019-03-21T20:01:34.427Z,5.70
2019-03-21T20:04:03.697Z,6.50
2019-03-21T20:06:32.743Z,6.23
2019-03-21T20:09:03.683Z,6.40
2019-03-21T20:11:36.254Z,7.13
2019-03-21T20:16:59.209Z,6.57
2019-03-21T20:19:32.733Z,5.97
2019-03-21T20:25:42.226Z,5.50
2019-03-21T20:28:11.214Z,5.00
2019-03-21T20:30:40.507Z,5.33
2019-03-21T20:33:54.585Z,5.40
2019-03-21T20:36:25.087Z,4.97
2019-03-21T20:39:48.920Z,5.47
2019-03-21T20:42:21.028Z,5.27
2019-03-21T20:45:27.387Z,5.43
2019-03-21T20:48:00.276Z,5.97
2019-03-21T20:50:29.230Z,5.57
2019-03-21T20:53:36.311Z,5.30
2019-03-21T20:56:05.238Z,5.83
2019-03-21T20:58:37.870Z,5.70
2019-03-21T21:01:14.727Z,5.70
2019-03-21T21:03:43.831Z,5.30
2019-03-21T21:06:17.701Z,5.97
2019-03-21T21:08:50.651Z,5.97
2019-03-21T21:11:21.601Z,5.77
2019-03-21T21:18:22.952Z,6.40
2019-03-21T21:24:43.143Z,6.20
2019-03-21T21:27:14.938Z,6.43
2019-03-21T21:36:50.019Z,6.37
2019-03-21T21:39:21.011Z,6.83
2019-03-21T21:41:49.997Z,6.83
2019-03-21T21:45:07.267Z,7.00
2019-03-21T21:47:38.792Z,6.40
2019-03-21T21:56:38.763Z,6.37
2019-03-21T21:59:07.723Z,6.37
2019-03-21T22:01:36.822Z,6.53
2019-03-21T22:04:05.807Z,7.03
2019-03-21T22:06:35.113Z,6.27
2019-03-21T22:09:14.230Z,6.27
2019-03-21T22:11:43.413Z,6.83
2019-03-21T22:14:12.685Z,5.97
2019-03-21T22:16:44.423Z,7.13
2019-03-21T22:19:13.473Z,6.43
2019-03-21T22:22:27.539Z,7.07
2019-03-21T22:24:57.013Z,6.03
2019-03-21T22:27:26.127Z,6.53
2019-03-21T22:30:37.449Z,7.00
2019-03-21T22:33:10.955Z,6.60
2019-03-21T22:36:33.305Z,6.67
2019-03-21T22:38:19.387Z,6.53
2019-03-21T22:40:55.772Z,6.47
2019-03-21T22:43:25.884Z,6.33
2019-03-21T22:45:55.051Z,6.50
2019-03-21T22:48:25.542Z,6.37
2019-03-21T22:51:08.302Z,6.27
2019-03-21T22:53:48.812Z,6.53
2019-03-21T22:56:42.265Z,7.40
2019-03-21T22:59:13.335Z,7.00
2019-03-21T23:01:42.281Z,7.27
2019-03-21T23:05:02.527Z,7.23
2019-03-21T23:07:41.642Z,7.50
2019-03-21T23:10:14.179Z,6.70
2019-03-21T23:12:43.387Z,7.80
2019-03-21T23:15:13.471Z,7.17
2019-03-21T23:18:15.919Z,8.23
2019-03-21T23:20:46.147Z,7.50
2019-03-21T23:23:16.136Z,8.53
2019-03-21T23:25:46.710Z,7.27
2019-03-21T23:28:16.025Z,8.43
2019-03-21T23:30:46.753Z,8.30
2019-03-21T23:33:22.882Z,8.30
2019-03-21T23:35:53.184Z,7.90
2019-03-21T23:38:24.758Z,8.87
2019-03-21T23:40:59.749Z,9.33
2019-03-21T23:43:32.242Z,9.00
2019-03-21T23:46:10.689Z,8.73
2019-03-21T23:48:44.033Z,8.77
2019-03-21T23:51:14.255Z,8.33
2019-03-21T23:53:46.370Z,7.83
2019-03-21T23:56:20.138Z,8.17
2019-03-21T23:58:50.433Z,8.90
